createdAt,value
2018-01-15T00:00:12.993Z,99.99
2018-01-15T00:01:13.029Z,99.99
2018-01-15T00:02:13.048Z,99.99
2018-01-15T00:03:13.078Z,99.99
2018-01-15T00:04:13.105Z,99.99
2018-01-15T00:05:13.196Z,99.99
2018-01-15T00:06:13.164Z,99.99
2018-01-15T00:07:13.186Z,99.99
2018-01-15T00:08:13.211Z,99.99
2018-01-15T00:09:13.239Z,99.99
2018-01-15T00:10:13.266Z,99.99
2018-01-15T00:11:13.297Z,99.99
2018-01-15T00:12:13.320Z,99.99
2018-01-15T00:13:13.345Z,99.99
2018-01-15T00:14:13.378Z,99.99
2018-01-15T00:15:13.399Z,99.99
2018-01-15T00:16:13.429Z,99.99
2018-01-15T00:17:13.456Z,99.99
2018-01-15T00:18:13.482Z,99.99
2018-01-15T00:19:13.508Z,99.99
2018-01-15T00:20:13.537Z,99.99
2018-01-15T00:21:13.567Z,99.99
2018-01-15T00:22:13.624Z,99.99
2018-01-15T00:23:13.620Z,99.99
2018-01-15T00:24:13.647Z,99.99
2018-01-15T00:25:13.672Z,99.99
2018-01-15T00:26:13.700Z,99.99
2018-01-15T00:27:13.725Z,99.99
2018-01-15T00:28:13.756Z,99.99
2018-01-15T00:29:14.103Z,99.99
2018-01-15T00:30:13.808Z,99.99
2018-01-15T00:31:13.839Z,99.99
2018-01-15T00:32:13.868Z,99.99
2018-01-15T00:33:13.888Z,99.99
2018-01-15T00:34:13.918Z,99.99
2018-01-15T00:35:13.943Z,99.99
2018-01-15T00:36:13.971Z,99.99
2018-01-15T00:37:13.998Z,99.99
2018-01-15T00:38:14.028Z,99.99
2018-01-15T00:39:14.054Z,99.99
2018-01-15T00:40:14.081Z,99.99
2018-01-15T00:41:14.419Z,99.99
2018-01-15T00:42:14.143Z,99.99
2018-01-15T00:43:14.163Z,99.99
2018-01-15T00:44:14.190Z,99.99
2018-01-15T00:45:14.216Z,99.99
2018-01-15T00:46:14.243Z,99.99
2018-01-15T00:47:14.271Z,99.99
2018-01-15T00:48:14.299Z,99.99
2018-01-15T00:49:14.325Z,99.99
2018-01-15T00:50:14.352Z,99.99
2018-01-15T00:51:14.381Z,99.99
2018-01-15T00:52:14.421Z,99.99
2018-01-15T00:53:14.436Z,99.99
2018-01-15T00:54:14.461Z,99.99
2018-01-15T00:55:14.499Z,99.99
2018-01-15T00:56:14.514Z,99.99
2018-01-15T00:57:14.542Z,99.99
2018-01-15T00:58:14.643Z,99.99
2018-01-15T00:59:14.600Z,99.99
2018-01-15T01:00:14.636Z,99.99
2018-01-15T01:01:14.653Z,99.99
2018-01-15T01:02:14.681Z,99.99
2018-01-15T01:03:14.704Z,99.99
2018-01-15T01:04:14.734Z,99.99
2018-01-15T01:05:14.763Z,99.99
2018-01-15T01:06:14.789Z,99.99
2018-01-15T01:07:14.814Z,99.99
2018-01-15T01:08:14.841Z,99.99
2018-01-15T01:09:14.867Z,99.99
2018-01-15T01:10:15.210Z,99.99
2018-01-15T01:11:14.921Z,99.99
2018-01-15T01:12:14.952Z,99.99
2018-01-15T01:13:14.977Z,99.99
2018-01-15T01:14:15.005Z,99.99
2018-01-15T01:15:15.355Z,99.99
2018-01-15T01:16:15.067Z,99.99
2018-01-15T01:17:15.086Z,99.99
2018-01-15T01:18:15.113Z,99.99
2018-01-15T01:19:15.138Z,99.99
2018-01-15T01:20:15.166Z,99.99
2018-01-15T01:21:15.207Z,99.99
2018-01-15T01:22:15.223Z,99.99
2018-01-15T01:23:15.245Z,99.99
2018-01-15T01:24:15.274Z,99.99
2018-01-15T01:25:15.305Z,99.99
2018-01-15T01:26:15.332Z,99.99
2018-01-15T01:27:15.423Z,99.99
2018-01-15T01:28:15.385Z,99.99
2018-01-15T01:29:15.415Z,99.99
2018-01-15T01:30:15.438Z,99.99
2018-01-15T01:31:15.465Z,99.99
2018-01-15T01:32:15.496Z,99.99
2018-01-15T01:33:15.522Z,99.99
2018-01-15T01:34:15.548Z,99.99
2018-01-15T01:35:15.577Z,99.99
2018-01-15T01:36:15.806Z,99.99
2018-01-15T01:37:15.630Z,99.99
2018-01-15T01:38:15.659Z,99.99
2018-01-15T01:39:15.699Z,99.99
2018-01-15T01:40:15.710Z,99.99
2018-01-15T01:41:15.736Z,99.99
2018-01-15T01:42:15.766Z,99.99
2018-01-15T01:43:15.788Z,99.99
2018-01-15T01:44:15.918Z,99.99
2018-01-15T01:45:15.846Z,99.99
2018-01-15T01:46:15.877Z,99.99
2018-01-15T01:47:15.899Z,99.99
2018-01-15T01:48:15.928Z,99.99
2018-01-15T01:49:16.010Z,99.99
2018-01-15T01:50:15.981Z,99.99
2018-01-15T01:51:16.007Z,99.99
2018-01-15T01:52:16.042Z,99.99
2018-01-15T01:53:16.070Z,99.99
2018-01-15T01:54:16.091Z,99.99
2018-01-15T01:55:16.115Z,99.99
2018-01-15T01:56:16.143Z,99.99
2018-01-15T01:57:16.171Z,99.99
2018-01-15T01:58:16.197Z,99.99
2018-01-15T01:59:16.226Z,99.99
2018-01-15T02:00:16.254Z,99.99
2018-01-15T02:01:16.347Z,99.99
2018-01-15T02:02:16.307Z,99.99
2018-01-15T02:03:16.333Z,99.99
2018-01-15T02:04:16.361Z,99.99
2018-01-15T02:05:16.387Z,99.99
2018-01-15T02:06:16.413Z,99.99
2018-01-15T02:07:16.448Z,99.99
2018-01-15T02:08:16.469Z,99.99
2018-01-15T02:09:16.499Z,99.99
2018-01-15T02:10:16.587Z,99.99
2018-01-15T02:11:16.549Z,99.99
2018-01-15T02:12:16.579Z,99.99
2018-01-15T02:13:16.612Z,99.99
2018-01-15T02:14:16.631Z,99.99
2018-01-15T02:15:16.660Z,99.99
2018-01-15T02:16:16.686Z,99.99
2018-01-15T02:17:16.711Z,99.99
2018-01-15T02:18:16.743Z,99.99
2018-01-15T02:19:16.766Z,99.99
2018-01-15T02:20:17.120Z,99.99
2018-01-15T02:21:16.820Z,99.99
2018-01-15T02:22:16.850Z,99.99
2018-01-15T02:23:16.876Z,99.99
2018-01-15T02:24:16.916Z,99.99
2018-01-15T02:25:16.932Z,99.99
2018-01-15T02:26:16.958Z,99.99
2018-01-15T02:27:16.983Z,99.99
2018-01-15T02:28:17.012Z,99.99
2018-01-15T02:29:17.042Z,99.99
2018-01-15T02:30:17.116Z,99.99
2018-01-15T02:31:17.092Z,99.99
2018-01-15T02:32:17.121Z,99.99
2018-01-15T02:33:17.147Z,99.99
2018-01-15T02:34:17.173Z,99.99
2018-01-15T02:35:17.202Z,99.99
2018-01-15T02:36:17.228Z,99.99
2018-01-15T02:37:17.475Z,99.99
2018-01-15T02:38:17.281Z,99.99
2018-01-15T02:39:17.311Z,99.99
2018-01-15T02:40:17.336Z,99.99
2018-01-15T02:41:17.362Z,99.99
2018-01-15T02:42:17.397Z,99.99
2018-01-15T02:43:17.415Z,99.99
2018-01-15T02:44:17.442Z,99.99
2018-01-15T02:45:17.472Z,99.99
2018-01-15T02:46:17.503Z,99.99
2018-01-15T02:47:17.525Z,99.99
2018-01-15T02:48:17.552Z,99.99
2018-01-15T02:49:17.578Z,99.99
2018-01-15T02:50:17.607Z,99.99
2018-01-15T02:51:17.634Z,99.99
2018-01-15T02:52:17.662Z,99.99
2018-01-15T02:53:17.686Z,99.99
2018-01-15T02:54:17.739Z,99.99
2018-01-15T02:55:17.751Z,99.99
2018-01-15T02:56:17.768Z,99.99
2018-01-15T02:57:17.797Z,99.99
2018-01-15T02:58:17.825Z,99.99
2018-01-15T02:59:17.864Z,99.99
2018-01-15T03:00:17.878Z,99.99
2018-01-15T03:01:17.911Z,99.99
2018-01-15T03:02:17.935Z,99.99
2018-01-15T03:03:17.958Z,99.99
2018-01-15T03:04:17.987Z,99.99
2018-01-15T03:05:18.015Z,99.99
2018-01-15T03:06:18.045Z,99.99
2018-01-15T03:07:18.066Z,99.99
2018-01-15T03:08:18.095Z,99.99
2018-01-15T03:09:18.120Z,99.99
2018-01-15T03:10:18.147Z,99.99
2018-01-15T03:11:18.179Z,99.99
2018-01-15T03:12:18.201Z,99.99
2018-01-15T03:13:18.229Z,99.99
2018-01-15T03:14:18.264Z,99.99
2018-01-15T03:15:18.280Z,99.99
2018-01-15T03:16:18.308Z,99.99
2018-01-15T03:17:18.336Z,99.99
2018-01-15T03:18:18.366Z,99.99
2018-01-15T03:19:18.388Z,99.99
2018-01-15T03:20:18.416Z,99.99
2018-01-15T03:21:18.446Z,99.99
2018-01-15T03:22:18.472Z,99.99
2018-01-15T03:23:18.563Z,99.99
2018-01-15T03:24:18.527Z,99.99
2018-01-15T03:25:18.560Z,99.99
2018-01-15T03:26:18.579Z,99.99
2018-01-15T03:27:18.652Z,99.99
2018-01-15T03:28:18.637Z,99.99
2018-01-15T03:29:18.731Z,99.99
2018-01-15T03:30:18.688Z,99.99
2018-01-15T03:31:18.718Z,99.99
2018-01-15T03:32:18.742Z,99.99
2018-01-15T03:33:18.772Z,99.99
2018-01-15T03:34:18.807Z,99.99
2018-01-15T03:35:18.823Z,99.99
2018-01-15T03:36:18.855Z,99.99
2018-01-15T03:37:18.878Z,99.99
2018-01-15T03:38:18.908Z,99.99
2018-01-15T03:39:18.933Z,99.99
2018-01-15T03:40:18.992Z,99.99
2018-01-15T03:41:18.989Z,99.99
2018-01-15T03:42:19.019Z,99.99
2018-01-15T03:43:19.044Z,99.99
2018-01-15T03:44:19.072Z,99.99
2018-01-15T03:45:19.099Z,99.99
2018-01-15T03:46:19.130Z,99.99
2018-01-15T03:47:19.160Z,99.70
2018-01-15T03:48:19.183Z,99.51
2018-01-15T03:49:19.211Z,99.32
2018-01-15T03:50:19.242Z,99.99
2018-01-15T03:51:19.265Z,99.99
2018-01-15T03:52:19.296Z,99.99
2018-01-15T03:53:19.320Z,99.99
2018-01-15T03:54:19.351Z,99.99
2018-01-15T03:55:19.375Z,99.99
2018-01-15T03:56:19.407Z,99.99
2018-01-15T03:57:19.495Z,99.94
2018-01-15T03:58:19.461Z,99.94
2018-01-15T03:59:19.492Z,99.94
2018-01-15T04:00:19.513Z,99.94
2018-01-15T04:01:19.548Z,99.84
2018-01-15T04:02:19.569Z,99.56
2018-01-15T04:03:19.596Z,99.56
2018-01-15T04:04:19.627Z,99.75
2018-01-15T04:05:19.662Z,99.65
2018-01-15T04:06:19.680Z,99.75
2018-01-15T04:07:19.706Z,99.84
2018-01-15T04:08:19.734Z,99.18
2018-01-15T04:09:19.817Z,99.46
2018-01-15T04:10:19.792Z,99.94
2018-01-15T04:11:19.818Z,99.65
2018-01-15T04:12:19.848Z,99.75
2018-01-15T04:13:19.878Z,99.94
2018-01-15T04:14:19.901Z,99.99
2018-01-15T04:15:19.932Z,99.99
2018-01-15T04:16:20.098Z,99.99
2018-01-15T04:17:19.984Z,99.99
2018-01-15T04:18:20.015Z,99.99
2018-01-15T04:19:20.045Z,99.99
2018-01-15T04:20:20.069Z,99.99
2018-01-15T04:21:20.096Z,99.99
2018-01-15T04:22:20.123Z,99.84
2018-01-15T04:23:20.155Z,99.99
2018-01-15T04:24:20.179Z,99.99
2018-01-15T04:25:20.206Z,99.99
2018-01-15T04:26:20.236Z,99.99
2018-01-15T04:27:20.263Z,99.99
2018-01-15T04:28:20.294Z,99.99
2018-01-15T04:29:20.320Z,99.99
2018-01-15T04:30:20.346Z,99.99
2018-01-15T04:31:20.375Z,99.99
2018-01-15T04:32:20.404Z,99.99
2018-01-15T04:33:20.477Z,99.99
2018-01-15T04:34:20.460Z,99.80
2018-01-15T04:35:20.487Z,99.75
2018-01-15T04:36:20.514Z,99.23
2018-01-15T04:37:20.543Z,99.33
2018-01-15T04:38:20.570Z,99.42
2018-01-15T04:39:20.597Z,99.42
2018-01-15T04:40:20.624Z,99.61
2018-01-15T04:41:20.655Z,99.80
2018-01-15T04:42:20.686Z,99.99
2018-01-15T04:43:20.720Z,99.99
2018-01-15T04:44:20.737Z,99.99
2018-01-15T04:45:20.765Z,99.23
2018-01-15T04:46:20.795Z,99.04
2018-01-15T04:47:20.821Z,99.14
2018-01-15T04:48:20.851Z,98.57
2018-01-15T04:49:20.877Z,98.76
2018-01-15T04:50:21.017Z,98.66
2018-01-15T04:51:20.936Z,98.66
2018-01-15T04:52:20.961Z,98.47
2018-01-15T04:53:20.991Z,98.66
2018-01-15T04:54:21.018Z,98.95
2018-01-15T04:55:21.047Z,99.33
2018-01-15T04:56:21.079Z,99.04
2018-01-15T04:57:21.102Z,98.95
2018-01-15T04:58:21.131Z,99.23
2018-01-15T04:59:21.158Z,99.23
2018-01-15T05:00:21.187Z,99.33
2018-01-15T05:01:21.217Z,99.42
2018-01-15T05:02:21.265Z,99.33
2018-01-15T05:03:21.273Z,99.42
2018-01-15T05:04:21.301Z,99.52
2018-01-15T05:05:21.329Z,99.71
2018-01-15T05:06:21.359Z,99.42
2018-01-15T05:07:21.384Z,99.23
2018-01-15T05:08:21.412Z,99.14
2018-01-15T05:09:21.544Z,99.14
2018-01-15T05:10:21.471Z,99.42
2018-01-15T05:11:21.499Z,99.23
2018-01-15T05:12:21.529Z,98.57
2018-01-15T05:13:21.556Z,98.85
2018-01-15T05:14:21.603Z,98.10
2018-01-15T05:15:21.612Z,98.66
2018-01-15T05:16:21.644Z,98.85
2018-01-15T05:17:21.673Z,98.38
2018-01-15T05:18:21.700Z,97.91
2018-01-15T05:19:21.730Z,97.72
2018-01-15T05:20:21.763Z,98.28
2018-01-15T05:21:21.784Z,98.57
2018-01-15T05:22:21.813Z,98.38
2018-01-15T05:24:21.870Z,98.66
2018-01-15T05:25:21.899Z,98.57
2018-01-15T05:26:21.995Z,98.28
2018-01-15T05:27:22.002Z,98.38
2018-01-15T05:28:21.981Z,98.10
2018-01-15T05:29:22.024Z,98.66
2018-01-15T05:30:22.039Z,99.42
2018-01-15T05:31:22.065Z,99.23
2018-01-15T05:32:22.092Z,99.42
2018-01-15T05:33:22.131Z,99.99
2018-01-15T05:34:22.150Z,99.52
2018-01-15T05:35:22.179Z,99.99
2018-01-15T05:36:22.209Z,98.85
2018-01-15T05:37:22.235Z,99.14
2018-01-15T05:38:22.322Z,98.95
2018-01-15T05:39:22.350Z,99.14
2018-01-15T05:40:22.320Z,98.76
2018-01-15T05:41:22.351Z,99.14
2018-01-15T05:42:22.381Z,99.33
2018-01-15T05:43:22.433Z,99.04
2018-01-15T05:44:22.433Z,98.19
2018-01-15T05:45:22.466Z,98.38
2018-01-15T05:46:22.495Z,98.14
2018-01-15T05:47:22.522Z,98.38
2018-01-15T05:48:22.551Z,98.19
2018-01-15T05:49:22.584Z,98.10
2018-01-15T05:50:22.607Z,98.38
2018-01-15T05:51:22.634Z,98.95
2018-01-15T05:52:22.666Z,98.85
2018-01-15T05:53:22.692Z,98.66
2018-01-15T05:54:22.724Z,98.95
2018-01-15T05:55:22.803Z,99.14
2018-01-15T05:56:22.780Z,99.71
2018-01-15T05:57:22.809Z,99.61
2018-01-15T05:58:22.835Z,99.99
2018-01-15T05:59:22.863Z,99.99
2018-01-15T06:00:22.898Z,99.14
2018-01-15T06:01:22.927Z,99.52
2018-01-15T06:02:23.265Z,99.23
2018-01-15T06:03:22.974Z,99.80
2018-01-15T06:04:23.005Z,99.99
2018-01-15T06:05:23.033Z,99.89
2018-01-15T06:06:23.074Z,99.99
2018-01-15T06:07:23.095Z,99.42
2018-01-15T06:08:23.117Z,99.61
2018-01-15T06:09:23.156Z,99.23
2018-01-15T06:10:23.183Z,99.99
2018-01-15T06:11:23.205Z,99.33
2018-01-15T06:12:23.235Z,99.14
2018-01-15T06:13:23.318Z,99.33
2018-01-15T06:14:23.287Z,99.42
2018-01-15T06:15:23.315Z,99.42
2018-01-15T06:16:23.345Z,99.42
2018-01-15T06:17:23.375Z,99.42
2018-01-15T06:18:23.401Z,99.33
2018-01-15T06:19:23.535Z,99.42
2018-01-15T06:20:23.457Z,99.80
2018-01-15T06:21:23.484Z,99.89
2018-01-15T06:22:23.516Z,99.99
2018-01-15T06:23:23.541Z,99.99
2018-01-15T06:24:23.572Z,99.99
2018-01-15T06:25:23.598Z,99.99
2018-01-15T06:26:23.627Z,99.99
2018-01-15T06:27:23.657Z,99.71
2018-01-15T06:28:23.686Z,99.99
2018-01-15T06:29:23.730Z,99.99
2018-01-15T06:30:23.749Z,99.99
2018-01-15T06:31:23.779Z,99.80
2018-01-15T06:32:23.797Z,99.80
2018-01-15T06:33:23.826Z,99.80
2018-01-15T06:34:23.858Z,99.71
2018-01-15T06:35:23.883Z,99.99
2018-01-15T06:36:23.976Z,99.99
2018-01-15T06:37:23.938Z,99.99
2018-01-15T06:38:23.968Z,99.99
2018-01-15T06:39:23.999Z,99.99
2018-01-15T06:40:24.024Z,99.99
2018-01-15T06:41:24.053Z,99.99
2018-01-15T06:42:24.083Z,99.95
2018-01-15T06:43:24.109Z,99.85
2018-01-15T06:44:24.138Z,99.28
2018-01-15T06:45:24.168Z,99.19
2018-01-15T06:46:24.195Z,99.28
2018-01-15T06:47:24.224Z,99.28
2018-01-15T06:48:24.310Z,99.19
2018-01-15T06:49:24.282Z,99.19
2018-01-15T06:50:24.318Z,98.81
2018-01-15T06:51:24.338Z,98.90
2018-01-15T06:52:24.370Z,98.43
2018-01-15T06:53:24.394Z,99.00
2018-01-15T06:54:24.430Z,99.19
2018-01-15T06:55:24.484Z,98.71
2018-01-15T06:56:24.480Z,98.24
2018-01-15T06:57:24.510Z,98.52
2018-01-15T06:58:24.539Z,98.14
2018-01-15T06:59:24.564Z,98.14
2018-01-15T07:00:24.595Z,97.86
2018-01-15T07:01:24.622Z,98.33
2018-01-15T07:02:24.651Z,98.52
2018-01-15T07:03:24.683Z,97.96
2018-01-15T07:04:24.711Z,98.33
2018-01-15T07:05:24.742Z,97.39
2018-01-15T07:06:24.766Z,98.05
2018-01-15T07:07:24.794Z,97.86
2018-01-15T07:08:24.823Z,97.86
2018-01-15T07:09:24.854Z,98.14
2018-01-15T07:10:24.882Z,97.82
2018-01-15T07:11:24.911Z,98.14
2018-01-15T07:12:24.988Z,97.63
2018-01-15T07:13:24.972Z,97.06
2018-01-15T07:14:24.997Z,97.72
2018-01-15T07:15:25.026Z,98.01
2018-01-15T07:16:25.055Z,98.10
2018-01-15T07:17:25.086Z,97.63
2018-01-15T07:18:25.113Z,97.44
2018-01-15T07:19:25.142Z,97.72
2018-01-15T07:20:25.173Z,97.72
2018-01-15T07:21:25.203Z,97.06
2018-01-15T07:22:25.234Z,97.25
2018-01-15T07:23:25.305Z,97.06
2018-01-15T07:24:25.289Z,97.25
2018-01-15T07:25:25.317Z,96.97
2018-01-15T07:26:25.345Z,96.88
2018-01-15T07:27:25.375Z,96.97
2018-01-15T07:28:25.406Z,96.78
2018-01-15T07:29:25.634Z,96.50
2018-01-15T07:30:25.465Z,96.69
2018-01-15T07:31:25.489Z,95.55
2018-01-15T07:32:25.517Z,95.83
2018-01-15T07:33:25.548Z,96.12
2018-01-15T07:34:25.583Z,95.64
2018-01-15T07:35:25.617Z,95.83
2018-01-15T07:36:25.634Z,95.83
2018-01-15T07:37:25.665Z,95.17
2018-01-15T07:38:25.695Z,94.79
2018-01-15T07:39:25.720Z,95.26
2018-01-15T07:40:25.750Z,94.60
2018-01-15T07:41:25.910Z,94.70
2018-01-15T07:42:25.808Z,94.04
2018-01-15T07:43:25.835Z,93.94
2018-01-15T07:44:25.889Z,94.13
2018-01-15T07:45:25.895Z,93.56
2018-01-15T07:46:25.926Z,93.37
2018-01-15T07:47:25.958Z,93.66
2018-01-15T07:48:25.980Z,93.47
2018-01-15T07:49:26.014Z,93.66
2018-01-15T07:50:26.039Z,93.37
2018-01-15T07:51:26.068Z,92.90
2018-01-15T07:52:26.099Z,93.18
2018-01-15T07:53:26.139Z,93.09
2018-01-15T07:54:26.157Z,92.71
2018-01-15T07:55:26.187Z,92.66
2018-01-15T07:56:26.217Z,92.94
2018-01-15T07:57:26.247Z,92.94
2018-01-15T07:58:26.278Z,92.47
2018-01-15T07:59:26.302Z,92.47
2018-01-15T08:00:26.331Z,92.47
2018-01-15T08:01:26.362Z,92.57
2018-01-15T08:02:26.392Z,92.38
2018-01-15T08:03:26.427Z,92.47
2018-01-15T08:04:26.446Z,91.91
2018-01-15T08:05:26.547Z,92.10
2018-01-15T08:06:26.507Z,91.91
2018-01-15T08:07:26.539Z,91.81
2018-01-15T08:08:26.570Z,91.72
2018-01-15T08:09:26.631Z,92.10
2018-01-15T08:10:26.629Z,91.43
2018-01-15T08:11:26.705Z,92.10
2018-01-15T08:12:27.006Z,91.81
2018-01-15T08:13:26.711Z,91.72
2018-01-15T08:14:26.742Z,92.10
2018-01-15T08:15:26.774Z,91.72
2018-01-15T08:16:26.799Z,92.19
2018-01-15T08:17:26.828Z,91.34
2018-01-15T08:18:26.861Z,91.72
2018-01-15T08:19:26.892Z,91.62
2018-01-15T08:20:26.933Z,91.53
2018-01-15T08:21:26.950Z,90.86
2018-01-15T08:22:26.992Z,90.86
2018-01-15T08:23:27.006Z,91.24
2018-01-15T08:24:27.035Z,91.24
2018-01-15T08:25:27.066Z,90.58
2018-01-15T08:26:27.095Z,91.05
2018-01-15T08:27:27.160Z,91.34
2018-01-15T08:28:27.155Z,91.05
2018-01-15T08:29:27.183Z,91.15
2018-01-15T08:30:27.236Z,91.53
2018-01-15T08:31:27.250Z,91.34
2018-01-15T08:32:27.279Z,91.34
2018-01-15T08:33:27.308Z,91.72
2018-01-15T08:34:27.331Z,92.19
2018-01-15T08:35:27.360Z,91.05
2018-01-15T08:36:27.396Z,91.15
2018-01-15T08:37:27.421Z,90.86
2018-01-15T08:38:27.450Z,90.39
2018-01-15T08:39:27.478Z,90.58
2018-01-15T08:40:27.514Z,91.15
2018-01-15T08:41:27.655Z,91.15
2018-01-15T08:42:27.568Z,91.62
2018-01-15T08:43:27.596Z,91.43
2018-01-15T08:44:27.626Z,90.86
2018-01-15T08:45:27.658Z,91.05
2018-01-15T08:46:27.685Z,91.10
2018-01-15T08:47:27.715Z,91.24
2018-01-15T08:48:28.075Z,90.81
2018-01-15T08:49:27.775Z,91.38
2018-01-15T08:50:27.804Z,90.96
2018-01-15T08:51:27.833Z,91.19
2018-01-15T08:52:27.863Z,91.29
2018-01-15T08:53:27.909Z,91.05
2018-01-15T08:54:27.928Z,91.00
2018-01-15T08:55:27.953Z,91.10
2018-01-15T08:56:27.984Z,91.48
2018-01-15T08:57:28.018Z,91.48
2018-01-15T08:58:28.045Z,91.10
2018-01-15T08:59:28.069Z,91.10
2018-01-15T09:00:28.111Z,91.67
2018-01-15T09:01:28.129Z,91.76
2018-01-15T09:02:28.167Z,91.10
2018-01-15T09:03:28.189Z,90.81
2018-01-15T09:04:28.218Z,90.06
2018-01-15T09:05:28.575Z,90.34
2018-01-15T09:06:28.281Z,90.81
2018-01-15T09:07:28.366Z,90.34
2018-01-15T09:08:28.337Z,90.34
2018-01-15T09:09:28.366Z,90.72
2018-01-15T09:10:28.397Z,90.72
2018-01-15T09:11:28.427Z,90.15
2018-01-15T09:12:28.464Z,89.77
2018-01-15T09:13:28.486Z,89.87
2018-01-15T09:14:28.516Z,89.68
2018-01-15T09:15:28.544Z,89.58
2018-01-15T09:16:28.576Z,89.58
2018-01-15T09:17:28.605Z,89.58
2018-01-15T09:18:28.638Z,89.49
2018-01-15T09:19:28.665Z,89.20
2018-01-15T09:20:28.696Z,89.20
2018-01-15T09:21:28.725Z,89.58
2018-01-15T09:22:28.757Z,89.30
2018-01-15T09:23:28.785Z,89.30
2018-01-15T09:24:28.905Z,89.49
2018-01-15T09:25:28.850Z,89.11
2018-01-15T09:26:28.875Z,89.11
2018-01-15T09:27:28.907Z,89.91
2018-01-15T09:28:28.937Z,89.91
2018-01-15T09:29:28.966Z,89.06
2018-01-15T09:30:28.997Z,89.06
2018-01-15T09:31:29.027Z,89.63
2018-01-15T09:32:29.058Z,89.63
2018-01-15T09:33:29.128Z,89.15
2018-01-15T09:34:29.118Z,89.06
2018-01-15T09:35:29.147Z,88.49
2018-01-15T09:36:29.191Z,88.11
2018-01-15T09:37:29.261Z,88.21
2018-01-15T09:38:29.241Z,88.49
2018-01-15T09:39:29.269Z,88.59
2018-01-15T09:40:29.296Z,88.78
2018-01-15T09:41:29.651Z,88.11
2018-01-15T09:42:29.357Z,88.30
2018-01-15T09:43:29.389Z,88.49
2018-01-15T09:44:29.419Z,88.30
2018-01-15T09:45:29.448Z,88.30
2018-01-15T09:46:29.479Z,87.64
2018-01-15T09:47:29.508Z,88.11
2018-01-15T09:48:29.657Z,87.92
2018-01-15T09:49:29.568Z,87.92
2018-01-15T09:50:29.599Z,87.45
2018-01-15T09:51:29.629Z,88.02
2018-01-15T09:52:29.662Z,88.21
2018-01-15T09:53:29.691Z,88.30
2018-01-15T09:54:29.722Z,88.30
2018-01-15T09:55:29.773Z,88.49
2018-01-15T09:56:29.782Z,88.40
2018-01-15T09:57:29.808Z,89.34
2018-01-15T09:58:29.843Z,89.63
2018-01-15T09:59:29.871Z,89.63
2018-01-15T10:00:29.901Z,89.53
2018-01-15T10:01:29.940Z,88.96
2018-01-15T10:02:29.962Z,88.49
2018-01-15T10:03:29.990Z,88.96
2018-01-15T10:04:30.023Z,89.25
2018-01-15T10:05:30.158Z,89.34
2018-01-15T10:06:30.082Z,89.53
2018-01-15T10:07:30.113Z,89.53
2018-01-15T10:08:30.143Z,89.91
2018-01-15T10:09:30.173Z,89.63
2018-01-15T10:10:30.207Z,89.72
2018-01-15T10:11:30.234Z,89.91
2018-01-15T10:12:30.265Z,89.63
2018-01-15T10:13:30.294Z,90.20
2018-01-15T10:14:30.340Z,89.72
2018-01-15T10:15:30.354Z,89.53
2018-01-15T10:16:30.386Z,89.63
2018-01-15T10:17:30.431Z,89.63
2018-01-15T10:18:30.443Z,88.96
2018-01-15T10:19:30.476Z,89.53
2018-01-15T10:20:30.504Z,89.63
2018-01-15T10:21:30.595Z,89.63
2018-01-15T10:22:30.577Z,89.53
2018-01-15T10:23:30.595Z,89.63
2018-01-15T10:24:30.696Z,89.15
2018-01-15T10:25:30.658Z,89.44
2018-01-15T10:26:30.697Z,89.63
2018-01-15T10:27:30.723Z,89.63
2018-01-15T10:28:30.747Z,89.44
2018-01-15T10:29:30.782Z,89.72
2018-01-15T10:30:30.808Z,89.72
2018-01-15T10:31:30.838Z,89.82
2018-01-15T10:32:30.868Z,89.72
2018-01-15T10:33:30.899Z,89.15
2018-01-15T10:34:30.933Z,89.06
2018-01-15T10:35:30.964Z,89.63
2018-01-15T10:36:30.988Z,89.25
2018-01-15T10:37:31.018Z,89.91
2018-01-15T10:38:31.054Z,89.63
2018-01-15T10:39:31.078Z,89.44
2018-01-15T10:40:31.114Z,90.10
2018-01-15T10:41:31.149Z,89.25
2018-01-15T10:42:31.175Z,88.96
2018-01-15T10:43:31.203Z,89.34
2018-01-15T10:44:31.234Z,88.96
2018-01-15T10:45:31.265Z,89.15
2018-01-15T10:46:31.295Z,89.63
2018-01-15T10:47:31.325Z,88.96
2018-01-15T10:48:31.371Z,88.96
2018-01-15T10:49:31.384Z,89.34
2018-01-15T10:50:31.414Z,89.53
2018-01-15T10:51:31.457Z,89.15
2018-01-15T10:52:31.474Z,89.25
2018-01-15T10:53:31.505Z,89.06
2018-01-15T10:54:31.534Z,89.15
2018-01-15T10:55:31.581Z,88.96
2018-01-15T10:56:31.595Z,88.96
2018-01-15T10:57:31.630Z,88.02
2018-01-15T10:58:31.655Z,88.30
2018-01-15T10:59:31.686Z,89.25
2018-01-15T11:00:31.718Z,88.96
2018-01-15T11:01:31.748Z,89.34
2018-01-15T11:02:31.779Z,89.44
2018-01-15T11:03:31.808Z,89.91
2018-01-15T11:04:31.838Z,89.44
2018-01-15T11:05:31.977Z,89.63
2018-01-15T11:06:31.901Z,87.64
2018-01-15T11:07:31.928Z,88.06
2018-01-15T11:08:31.962Z,88.25
2018-01-15T11:09:31.991Z,88.11
2018-01-15T11:10:32.081Z,87.92
2018-01-15T11:11:32.052Z,88.02
2018-01-15T11:12:32.083Z,87.92
2018-01-15T11:13:32.118Z,87.73
2018-01-15T11:14:32.158Z,86.93
2018-01-15T11:15:32.172Z,87.59
2018-01-15T11:16:32.206Z,87.68
2018-01-15T11:17:32.242Z,87.21
2018-01-15T11:18:32.268Z,86.93
2018-01-15T11:19:32.298Z,87.02
2018-01-15T11:20:32.329Z,87.49
2018-01-15T11:21:32.361Z,87.59
2018-01-15T11:22:32.391Z,87.49
2018-01-15T11:23:32.420Z,87.68
2018-01-15T11:24:32.518Z,86.93
2018-01-15T11:25:32.512Z,87.68
2018-01-15T11:26:32.511Z,88.35
2018-01-15T11:27:32.541Z,88.92
2018-01-15T11:28:32.570Z,88.16
2018-01-15T11:29:32.601Z,88.35
2018-01-15T11:30:32.634Z,87.97
2018-01-15T11:31:32.667Z,88.06
2018-01-15T11:32:32.694Z,88.06
2018-01-15T11:33:32.725Z,87.59
2018-01-15T11:34:32.753Z,87.77
2018-01-15T11:35:32.797Z,87.77
2018-01-15T11:36:32.869Z,87.77
2018-01-15T11:37:32.849Z,87.87
2018-01-15T11:38:32.881Z,87.68
2018-01-15T11:39:32.923Z,87.12
2018-01-15T11:40:32.940Z,87.40
2018-01-15T11:41:32.980Z,87.97
2018-01-15T11:42:33.013Z,87.49
2018-01-15T11:43:33.030Z,87.87
2018-01-15T11:44:33.061Z,87.12
2018-01-15T11:45:33.090Z,87.40
2018-01-15T11:46:33.123Z,86.83
2018-01-15T11:47:33.153Z,86.64
2018-01-15T11:48:33.210Z,86.93
2018-01-15T11:49:33.216Z,86.45
2018-01-15T11:50:33.246Z,87.21
2018-01-15T11:51:33.296Z,87.30
2018-01-15T11:52:33.307Z,87.40
2018-01-15T11:53:33.336Z,86.64
2018-01-15T11:54:33.373Z,87.12
2018-01-15T11:55:33.397Z,86.64
2018-01-15T11:56:33.431Z,87.12
2018-01-15T11:57:33.461Z,86.45
2018-01-15T11:58:33.492Z,86.55
2018-01-15T11:59:33.522Z,86.55
2018-01-15T12:00:33.554Z,86.55
2018-01-15T12:01:33.582Z,86.74
2018-01-15T12:02:33.615Z,86.45
2018-01-15T12:03:33.645Z,86.07
2018-01-15T12:04:33.682Z,85.97
2018-01-15T12:05:33.712Z,86.26
2018-01-15T12:06:33.738Z,86.07
2018-01-15T12:07:33.800Z,86.64
2018-01-15T12:08:33.805Z,86.55
2018-01-15T12:09:33.833Z,86.64
2018-01-15T12:10:33.864Z,86.64
2018-01-15T12:11:33.893Z,86.83
2018-01-15T12:12:33.923Z,85.97
2018-01-15T12:14:33.986Z,86.93
2018-01-15T12:15:34.015Z,85.78
2018-01-15T12:16:34.046Z,85.97
2018-01-15T12:17:34.138Z,86.30
2018-01-15T12:18:34.106Z,86.02
2018-01-15T12:19:34.151Z,85.69
2018-01-15T12:20:34.170Z,86.30
2018-01-15T12:21:34.217Z,85.74
2018-01-15T12:22:34.290Z,85.93
2018-01-15T12:23:34.265Z,85.45
2018-01-15T12:24:34.364Z,85.93
2018-01-15T12:25:34.333Z,85.64
2018-01-15T12:26:34.353Z,85.45
2018-01-15T12:27:34.384Z,85.45
2018-01-15T12:28:34.416Z,85.64
2018-01-15T12:29:34.448Z,85.64
2018-01-15T12:30:34.478Z,85.45
2018-01-15T12:31:34.508Z,85.55
2018-01-15T12:32:34.542Z,85.55
2018-01-15T12:33:34.578Z,85.74
2018-01-15T12:34:34.606Z,84.41
2018-01-15T12:35:34.636Z,84.69
2018-01-15T12:36:34.666Z,84.31
2018-01-15T12:37:34.696Z,83.74
2018-01-15T12:38:34.728Z,84.31
2018-01-15T12:39:34.817Z,84.59
2018-01-15T12:40:34.789Z,84.31
2018-01-15T12:41:34.827Z,84.50
2018-01-15T12:42:34.852Z,84.31
2018-01-15T12:43:34.881Z,84.50
2018-01-15T12:44:34.917Z,84.12
2018-01-15T12:45:34.951Z,83.94
2018-01-15T12:46:34.977Z,83.46
2018-01-15T12:47:35.006Z,83.65
2018-01-15T12:48:35.100Z,83.84
2018-01-15T12:49:35.071Z,83.74
2018-01-15T12:50:35.100Z,83.84
2018-01-15T12:51:35.136Z,83.65
2018-01-15T12:52:35.164Z,83.74
2018-01-15T12:53:35.193Z,83.94
2018-01-15T12:54:35.228Z,84.50